sensor_id;sensor_type;location;lat;lon;timestamp;temperature;humidity
52321;DHT22;38261;54.090;13.382;2023-07-08T00:00:31;15.80;99.90
52321;DHT22;38261;54.090;13.382;2023-07-08T00:01:53;15.80;99.90
52321;DHT22;38261;54.090;13.382;2023-07-08T00:03:16;15.70;99.90
52321;DHT22;38261;54.090;13.382;2023-07-08T00:04:39;15.70;99.90
52321;DHT22;38261;54.090;13.382;2023-07-08T00:06:01;15.70;99.90
52321;DHT22;38261;54.090;13.382;2023-07-08T00:07:23;15.70;99.90
52321;DHT22;38261;54.090;13.382;2023-07-08T00:08:46;15.70;99.90
52321;DHT22;38261;54.090;13.382;2023-07-08T00:10:21;15.70;99.90
52321;DHT22;38261;54.090;13.382;2023-07-08T00:11:43;15.70;99.90
52321;DHT22;38261;54.090;13.382;2023-07-08T00:13:06;15.70;99.90
52321;DHT22;38261;54.090;13.382;2023-07-08T00:14:29;15.70;99.90
52321;DHT22;38261;54.090;13.382;2023-07-08T00:15:51;15.70;99.90
52321;DHT22;38261;54.090;13.382;2023-07-08T00:17:13;15.70;99.90
52321;DHT22;38261;54.090;13.382;2023-07-08T00:18:35;15.60;99.90
52321;DHT22;38261;54.090;13.382;2023-07-08T00:19:57;15.60;99.90
52321;DHT22;38261;54.090;13.382;2023-07-08T00:21:20;15.70;99.90
52321;DHT22;38261;54.090;13.382;2023-07-08T00:22:42;15.60;99.90
52321;DHT22;38261;54.090;13.382;2023-07-08T00:24:04;15.60;99.90
52321;DHT22;38261;54.090;13.382;2023-07-08T00:25:27;15.60;99.90
52321;DHT22;38261;54.090;13.382;2023-07-08T00:26:49;15.60;99.90
52321;DHT22;38261;54.090;13.382;2023-07-08T00:28:20;15.60;99.90
52321;DHT22;38261;54.090;13.382;2023-07-08T00:29:43;15.60;99.90
52321;DHT22;38261;54.090;13.382;2023-07-08T00:31:09;15.60;99.90
52321;DHT22;38261;54.090;13.382;2023-07-08T00:32:32;15.60;99.90
52321;DHT22;38261;54.090;13.382;2023-07-08T00:33:55;15.60;99.90
52321;DHT22;38261;54.090;13.382;2023-07-08T00:35:22;15.60;99.90
52321;DHT22;38261;54.090;13.382;2023-07-08T00:36:45;15.50;99.90
52321;DHT22;38261;54.090;13.382;2023-07-08T00:38:23;15.60;99.90
52321;DHT22;38261;54.090;13.382;2023-07-08T00:39:49;15.50;99.90
52321;DHT22;38261;54.090;13.382;2023-07-08T00:41:33;15.50;99.90
52321;DHT22;38261;54.090;13.382;2023-07-08T00:42:59;15.50;99.90
52321;DHT22;38261;54.090;13.382;2023-07-08T00:44:22;15.50;99.90
52321;DHT22;38261;54.090;13.382;2023-07-08T00:45:50;15.50;99.90
52321;DHT22;38261;54.090;13.382;2023-07-08T00:47:24;15.50;99.90
52321;DHT22;38261;54.090;13.382;2023-07-08T00:48:47;15.50;99.90
52321;DHT22;38261;54.090;13.382;2023-07-08T00:50:10;15.50;99.90
52321;DHT22;38261;54.090;13.382;2023-07-08T00:51:34;15.40;99.90
52321;DHT22;38261;54.090;13.382;2023-07-08T00:53:28;15.40;99.90
52321;DHT22;38261;54.090;13.382;2023-07-08T00:54:52;15.40;99.90
52321;DHT22;38261;54.090;13.382;2023-07-08T00:57:52;15.40;99.90
52321;DHT22;38261;54.090;13.382;2023-07-08T01:00:45;15.40;99.90
52321;DHT22;38261;54.090;13.382;2023-07-08T01:02:09;15.30;99.90
52321;DHT22;38261;54.090;13.382;2023-07-08T01:03:40;15.30;99.90
52321;DHT22;38261;54.090;13.382;2023-07-08T01:05:08;15.30;99.90
52321;DHT22;38261;54.090;13.382;2023-07-08T01:06:34;15.30;99.90
52321;DHT22;38261;54.090;13.382;2023-07-08T01:08:02;15.30;99.90
52321;DHT22;38261;54.090;13.382;2023-07-08T01:09:29;15.30;99.90
52321;DHT22;38261;54.090;13.382;2023-07-08T01:10:56;15.30;99.90
52321;DHT22;38261;54.090;13.382;2023-07-08T01:12:26;15.30;99.90
52321;DHT22;38261;54.090;13.382;2023-07-08T01:13:50;15.20;99.90
52321;DHT22;38261;54.090;13.382;2023-07-08T01:15:14;15.20;99.90
52321;DHT22;38261;54.090;13.382;2023-07-08T01:16:37;15.20;99.90
52321;DHT22;38261;54.090;13.382;2023-07-08T01:18:00;15.20;99.90
52321;DHT22;38261;54.090;13.382;2023-07-08T01:19:23;15.20;99.90
52321;DHT22;38261;54.090;13.382;2023-07-08T01:21:02;15.20;99.90
52321;DHT22;38261;54.090;13.382;2023-07-08T01:22:28;15.20;99.90
52321;DHT22;38261;54.090;13.382;2023-07-08T01:23:55;15.20;99.90
52321;DHT22;38261;54.090;13.382;2023-07-08T01:25:17;15.20;99.90
52321;DHT22;38261;54.090;13.382;2023-07-08T01:26:43;15.20;99.90
52321;DHT22;38261;54.090;13.382;2023-07-08T01:28:06;15.20;99.90
52321;DHT22;38261;54.090;13.382;2023-07-08T01:29:28;15.20;99.90
52321;DHT22;38261;54.090;13.382;2023-07-08T01:30:51;15.20;99.90
52321;DHT22;38261;54.090;13.382;2023-07-08T01:32:14;15.10;99.90
52321;DHT22;38261;54.090;13.382;2023-07-08T01:33:40;15.10;99.90
52321;DHT22;38261;54.090;13.382;2023-07-08T01:35:05;15.10;99.90
52321;DHT22;38261;54.090;13.382;2023-07-08T01:36:38;15.10;99.90
52321;DHT22;38261;54.090;13.382;2023-07-08T01:38:03;15.10;99.90
52321;DHT22;38261;54.090;13.382;2023-07-08T01:39:31;15.10;99.90
52321;DHT22;38261;54.090;13.382;2023-07-08T01:40:56;15.10;99.90
52321;DHT22;38261;54.090;13.382;2023-07-08T01:42:19;15.10;99.90
52321;DHT22;38261;54.090;13.382;2023-07-08T01:43:42;15.10;99.90
52321;DHT22;38261;54.090;13.382;2023-07-08T01:45:13;15.00;99.90
52321;DHT22;38261;54.090;13.382;2023-07-08T01:46:36;15.00;99.90
52321;DHT22;38261;54.090;13.382;2023-07-08T01:48:02;15.00;99.90
52321;DHT22;38261;54.090;13.382;2023-07-08T01:49:25;15.00;99.90
52321;DHT22;38261;54.090;13.382;2023-07-08T01:50:54;15.00;99.90
52321;DHT22;38261;54.090;13.382;2023-07-08T01:52:18;15.00;99.90
52321;DHT22;38261;54.090;13.382;2023-07-08T01:53:42;15.00;99.90
52321;DHT22;38261;54.090;13.382;2023-07-08T01:55:04;14.90;99.90
52321;DHT22;38261;54.090;13.382;2023-07-08T01:56:26;14.90;99.90
52321;DHT22;38261;54.090;13.382;2023-07-08T01:57:51;14.90;99.90
52321;DHT22;38261;54.090;13.382;2023-07-08T01:59:14;14.80;99.90
52321;DHT22;38261;54.090;13.382;2023-07-08T02:00:36;14.80;99.90
52321;DHT22;38261;54.090;13.382;2023-07-08T02:01:58;14.80;99.90
52321;DHT22;38261;54.090;13.382;2023-07-08T02:03:21;14.80;99.90
52321;DHT22;38261;54.090;13.382;2023-07-08T02:04:43;14.70;99.90
52321;DHT22;38261;54.090;13.382;2023-07-08T02:06:07;14.70;99.90
52321;DHT22;38261;54.090;13.382;2023-07-08T02:07:30;14.70;99.90
52321;DHT22;38261;54.090;13.382;2023-07-08T02:08:52;14.70;99.90
52321;DHT22;38261;54.090;13.382;2023-07-08T02:10:14;14.70;99.90
52321;DHT22;38261;54.090;13.382;2023-07-08T02:11:36;14.60;99.90
52321;DHT22;38261;54.090;13.382;2023-07-08T02:12:59;14.60;99.90
52321;DHT22;38261;54.090;13.382;2023-07-08T02:14:21;14.60;99.90
52321;DHT22;38261;54.090;13.382;2023-07-08T02:15:43;14.60;99.90
52321;DHT22;38261;54.090;13.382;2023-07-08T02:17:05;14.60;99.90
52321;DHT22;38261;54.090;13.382;2023-07-08T02:18:28;14.60;99.90
52321;DHT22;38261;54.090;13.382;2023-07-08T02:19:54;14.60;99.90
52321;DHT22;38261;54.090;13.382;2023-07-08T02:21:17;14.60;99.90
52321;DHT22;38261;54.090;13.382;2023-07-08T02:22:39;14.60;99.90
52321;DHT22;38261;54.090;13.382;2023-07-08T02:24:02;14.60;99.90
52321;DHT22;38261;54.090;13.382;2023-07-08T02:25:24;14.60;99.90
52321;DHT22;38261;54.090;13.382;2023-07-08T02:26:46;14.70;99.90
52321;DHT22;38261;54.090;13.382;2023-07-08T02:28:09;14.60;99.90
52321;DHT22;38261;54.090;13.382;2023-07-08T02:29:31;14.60;99.90
52321;DHT22;38261;54.090;13.382;2023-07-08T02:30:54;14.60;99.90
52321;DHT22;38261;54.090;13.382;2023-07-08T02:32:16;14.60;99.90
52321;DHT22;38261;54.090;13.382;2023-07-08T02:33:38;14.60;99.90
52321;DHT22;38261;54.090;13.382;2023-07-08T02:35:05;14.60;99.90
52321;DHT22;38261;54.090;13.382;2023-07-08T02:36:27;14.60;99.90
52321;DHT22;38261;54.090;13.382;2023-07-08T02:37:49;14.60;99.90
52321;DHT22;38261;54.090;13.382;2023-07-08T02:39:12;14.60;99.90
52321;DHT22;38261;54.090;13.382;2023-07-08T02:40:34;14.60;99.90
52321;DHT22;38261;54.090;13.382;2023-07-08T02:41:56;14.60;99.90
52321;DHT22;38261;54.090;13.382;2023-07-08T02:43:18;14.60;99.90
52321;DHT22;38261;54.090;13.382;2023-07-08T02:44:40;14.60;99.90
52321;DHT22;38261;54.090;13.382;2023-07-08T02:46:03;14.60;99.90
52321;DHT22;38261;54.090;13.382;2023-07-08T02:47:25;14.60;99.90
52321;DHT22;38261;54.090;13.382;2023-07-08T02:48:47;14.60;99.90
52321;DHT22;38261;54.090;13.382;2023-07-08T02:50:11;14.60;99.90
52321;DHT22;38261;54.090;13.382;2023-07-08T02:51:33;14.60;99.90
52321;DHT22;38261;54.090;13.382;2023-07-08T02:52:55;14.60;99.90
52321;DHT22;38261;54.090;13.382;2023-07-08T02:54:17;14.60;99.90
52321;DHT22;38261;54.090;13.382;2023-07-08T02:55:40;14.60;99.90
52321;DHT22;38261;54.090;13.382;2023-07-08T02:57:04;14.60;99.90
52321;DHT22;38261;54.090;13.382;2023-07-08T02:58:27;14.60;99.90
52321;DHT22;38261;54.090;13.382;2023-07-08T02:59:49;14.70;99.90
52321;DHT22;38261;54.090;13.382;2023-07-08T03:01:11;14.60;99.90
52321;DHT22;38261;54.090;13.382;2023-07-08T03:02:33;14.70;99.90
52321;DHT22;38261;54.090;13.382;2023-07-08T03:03:56;14.70;99.90
52321;DHT22;38261;54.090;13.382;2023-07-08T03:05:20;14.70;99.90
52321;DHT22;38261;54.090;13.382;2023-07-08T03:06:43;14.70;99.90
52321;DHT22;38261;54.090;13.382;2023-07-08T03:08:05;14.70;99.90
52321;DHT22;38261;54.090;13.382;2023-07-08T03:09:28;14.70;99.90
52321;DHT22;38261;54.090;13.382;2023-07-08T03:10:59;14.70;99.90
52321;DHT22;38261;54.090;13.382;2023-07-08T03:12:22;14.70;99.90
52321;DHT22;38261;54.090;13.382;2023-07-08T03:13:44;14.70;99.90
52321;DHT22;38261;54.090;13.382;2023-07-08T03:15:07;14.80;99.90
52321;DHT22;38261;54.090;13.382;2023-07-08T03:16:29;14.80;99.90
52321;DHT22;38261;54.090;13.382;2023-07-08T03:17:51;14.80;99.90
52321;DHT22;38261;54.090;13.382;2023-07-08T03:19:19;14.80;99.90
52321;DHT22;38261;54.090;13.382;2023-07-08T03:20:42;14.90;99.90
52321;DHT22;38261;54.090;13.382;2023-07-08T03:22:06;14.90;99.90
52321;DHT22;38261;54.090;13.382;2023-07-08T03:23:29;14.90;99.90
52321;DHT22;38261;54.090;13.382;2023-07-08T03:24:52;14.90;99.90
52321;DHT22;38261;54.090;13.382;2023-07-08T03:26:32;15.00;99.90
52321;DHT22;38261;54.090;13.382;2023-07-08T03:27:56;15.00;99.90
52321;DHT22;38261;54.090;13.382;2023-07-08T03:29:19;15.20;99.90
52321;DHT22;38261;54.090;13.382;2023-07-08T03:30:42;15.50;99.90
52321;DHT22;38261;54.090;13.382;2023-07-08T03:32:07;15.80;99.90
52321;DHT22;38261;54.090;13.382;2023-07-08T03:33:30;16.30;99.90
52321;DHT22;38261;54.090;13.382;2023-07-08T03:34:52;16.80;99.90
52321;DHT22;38261;54.090;13.382;2023-07-08T03:36:17;17.40;99.90
52321;DHT22;38261;54.090;13.382;2023-07-08T03:37:45;17.90;99.90
52321;DHT22;38261;54.090;13.382;2023-07-08T03:39:07;18.50;99.90
52321;DHT22;38261;54.090;13.382;2023-07-08T03:40:29;18.80;99.90
52321;DHT22;38261;54.090;13.382;2023-07-08T03:41:52;19.20;99.90
52321;DHT22;38261;54.090;13.382;2023-07-08T03:43:14;19.60;99.90
52321;DHT22;38261;54.090;13.382;2023-07-08T03:44:36;20.10;99.90
52321;DHT22;38261;54.090;13.382;2023-07-08T03:45:59;20.60;99.90
52321;DHT22;38261;54.090;13.382;2023-07-08T03:47:21;21.10;99.90
52321;DHT22;38261;54.090;13.382;2023-07-08T03:48:43;21.70;99.90
52321;DHT22;38261;54.090;13.382;2023-07-08T03:50:08;22.20;99.90
52321;DHT22;38261;54.090;13.382;2023-07-08T03:51:36;22.70;99.90
52321;DHT22;38261;54.090;13.382;2023-07-08T03:52:59;23.30;99.90
52321;DHT22;38261;54.090;13.382;2023-07-08T03:54:23;23.70;99.90
52321;DHT22;38261;54.090;13.382;2023-07-08T03:55:46;24.10;99.90
52321;DHT22;38261;54.090;13.382;2023-07-08T03:57:08;24.40;99.90
52321;DHT22;38261;54.090;13.382;2023-07-08T03:58:30;24.70;99.90
52321;DHT22;38261;54.090;13.382;2023-07-08T03:59:52;24.90;99.90
52321;DHT22;38261;54.090;13.382;2023-07-08T04:01:16;25.20;99.90
52321;DHT22;38261;54.090;13.382;2023-07-08T04:02:40;25.50;99.90
52321;DHT22;38261;54.090;13.382;2023-07-08T04:04:02;25.80;99.90
52321;DHT22;38261;54.090;13.382;2023-07-08T04:05:25;26.10;99.90
52321;DHT22;38261;54.090;13.382;2023-07-08T04:06:47;26.40;99.90
52321;DHT22;38261;54.090;13.382;2023-07-08T04:08:09;26.60;99.90
52321;DHT22;38261;54.090;13.382;2023-07-08T04:09:31;26.80;99.90
52321;DHT22;38261;54.090;13.382;2023-07-08T04:10:53;27.00;99.90
52321;DHT22;38261;54.090;13.382;2023-07-08T04:12:16;27.20;99.90
52321;DHT22;38261;54.090;13.382;2023-07-08T04:13:38;27.40;99.90
52321;DHT22;38261;54.090;13.382;2023-07-08T04:16:25;27.60;99.90
52321;DHT22;38261;54.090;13.382;2023-07-08T04:17:50;27.70;99.90
52321;DHT22;38261;54.090;13.382;2023-07-08T04:19:13;27.70;99.90
52321;DHT22;38261;54.090;13.382;2023-07-08T04:20:36;27.90;99.90
52321;DHT22;38261;54.090;13.382;2023-07-08T04:22:01;28.20;99.90
52321;DHT22;38261;54.090;13.382;2023-07-08T04:23:24;28.40;99.90
52321;DHT22;38261;54.090;13.382;2023-07-08T04:24:46;28.70;99.90
52321;DHT22;38261;54.090;13.382;2023-07-08T04:26:09;29.00;99.90
52321;DHT22;38261;54.090;13.382;2023-07-08T04:27:32;29.30;99.90
52321;DHT22;38261;54.090;13.382;2023-07-08T04:28:54;29.50;99.90
52321;DHT22;38261;54.090;13.382;2023-07-08T04:30:24;29.70;99.90
52321;DHT22;38261;54.090;13.382;2023-07-08T04:31:47;29.70;99.90
52321;DHT22;38261;54.090;13.382;2023-07-08T04:33:14;29.80;99.90
52321;DHT22;38261;54.090;13.382;2023-07-08T04:34:36;29.80;99.90
52321;DHT22;38261;54.090;13.382;2023-07-08T04:35:58;29.90;99.90
52321;DHT22;38261;54.090;13.382;2023-07-08T04:37:21;30.00;99.90
52321;DHT22;38261;54.090;13.382;2023-07-08T04:38:43;30.20;99.90
52321;DHT22;38261;54.090;13.382;2023-07-08T04:40:19;30.40;99.90
52321;DHT22;38261;54.090;13.382;2023-07-08T04:41:42;30.60;99.90
52321;DHT22;38261;54.090;13.382;2023-07-08T04:43:06;30.60;99.90
52321;DHT22;38261;54.090;13.382;2023-07-08T04:44:31;30.60;99.90
52321;DHT22;38261;54.090;13.382;2023-07-08T04:45:54;30.80;99.90
52321;DHT22;38261;54.090;13.382;2023-07-08T04:47:17;31.00;99.90
52321;DHT22;38261;54.090;13.382;2023-07-08T04:48:42;31.10;99.90
52321;DHT22;38261;54.090;13.382;2023-07-08T04:50:04;31.10;99.90
52321;DHT22;38261;54.090;13.382;2023-07-08T04:51:26;31.20;99.90
52321;DHT22;38261;54.090;13.382;2023-07-08T04:52:48;31.20;99.90
52321;DHT22;38261;54.090;13.382;2023-07-08T04:54:12;31.10;99.90
52321;DHT22;38261;54.090;13.382;2023-07-08T04:55:39;31.00;99.90
52321;DHT22;38261;54.090;13.382;2023-07-08T04:57:02;30.90;99.90
52321;DHT22;38261;54.090;13.382;2023-07-08T04:58:24;31.00;99.90
52321;DHT22;38261;54.090;13.382;2023-07-08T04:59:47;31.00;99.90
52321;DHT22;38261;54.090;13.382;2023-07-08T05:01:09;31.10;99.90
52321;DHT22;38261;54.090;13.382;2023-07-08T05:02:31;31.10;99.90
52321;DHT22;38261;54.090;13.382;2023-07-08T05:03:53;31.20;99.90
52321;DHT22;38261;54.090;13.382;2023-07-08T05:05:15;31.20;99.90
52321;DHT22;38261;54.090;13.382;2023-07-08T05:06:38;31.20;99.90
52321;DHT22;38261;54.090;13.382;2023-07-08T05:08:00;31.20;99.90
52321;DHT22;38261;54.090;13.382;2023-07-08T05:09:23;31.10;99.90
52321;DHT22;38261;54.090;13.382;2023-07-08T05:10:48;31.00;99.90
52321;DHT22;38261;54.090;13.382;2023-07-08T05:12:11;31.20;99.90
52321;DHT22;38261;54.090;13.382;2023-07-08T05:13:33;31.30;99.90
52321;DHT22;38261;54.090;13.382;2023-07-08T05:14:55;31.30;99.90
52321;DHT22;38261;54.090;13.382;2023-07-08T05:16:17;31.30;99.90
52321;DHT22;38261;54.090;13.382;2023-07-08T05:17:40;31.30;99.90
52321;DHT22;38261;54.090;13.382;2023-07-08T05:19:03;31.30;99.90
52321;DHT22;38261;54.090;13.382;2023-07-08T05:20:25;31.30;99.90
52321;DHT22;38261;54.090;13.382;2023-07-08T05:21:47;31.30;99.90
52321;DHT22;38261;54.090;13.382;2023-07-08T05:23:10;31.50;99.90
52321;DHT22;38261;54.090;13.382;2023-07-08T05:24:32;31.60;99.90
52321;DHT22;38261;54.090;13.382;2023-07-08T05:25:54;31.60;99.90
52321;DHT22;38261;54.090;13.382;2023-07-08T05:27:16;31.80;99.90
52321;DHT22;38261;54.090;13.382;2023-07-08T05:28:38;31.70;99.90
52321;DHT22;38261;54.090;13.382;2023-07-08T05:30:05;31.60;99.90
52321;DHT22;38261;54.090;13.382;2023-07-08T05:31:28;31.90;99.90
52321;DHT22;38261;54.090;13.382;2023-07-08T05:33:08;32.10;99.90
52321;DHT22;38261;54.090;13.382;2023-07-08T05:34:30;31.90;99.90
52321;DHT22;38261;54.090;13.382;2023-07-08T05:35:53;31.80;99.90
52321;DHT22;38261;54.090;13.382;2023-07-08T05:37:16;31.90;99.90
52321;DHT22;38261;54.090;13.382;2023-07-08T05:38:40;31.90;99.90
52321;DHT22;38261;54.090;13.382;2023-07-08T05:40:03;31.60;99.90
52321;DHT22;38261;54.090;13.382;2023-07-08T05:41:26;31.40;99.90
52321;DHT22;38261;54.090;13.382;2023-07-08T05:42:48;31.20;99.90
52321;DHT22;38261;54.090;13.382;2023-07-08T05:44:11;31.20;99.90
52321;DHT22;38261;54.090;13.382;2023-07-08T05:45:33;31.20;99.90
52321;DHT22;38261;54.090;13.382;2023-07-08T05:46:57;31.20;99.90
52321;DHT22;38261;54.090;13.382;2023-07-08T05:48:19;31.20;99.90
52321;DHT22;38261;54.090;13.382;2023-07-08T05:49:41;31.00;99.90
52321;DHT22;38261;54.090;13.382;2023-07-08T05:51:04;30.80;99.90
52321;DHT22;38261;54.090;13.382;2023-07-08T05:52:26;30.70;99.90
52321;DHT22;38261;54.090;13.382;2023-07-08T05:53:48;30.50;99.90
52321;DHT22;38261;54.090;13.382;2023-07-08T05:55:10;30.30;99.90
52321;DHT22;38261;54.090;13.382;2023-07-08T05:56:32;30.10;99.90
52321;DHT22;38261;54.090;13.382;2023-07-08T05:57:54;29.70;99.90
52321;DHT22;38261;54.090;13.382;2023-07-08T05:59:16;29.50;99.90
52321;DHT22;38261;54.090;13.382;2023-07-08T06:00:38;29.40;99.90
52321;DHT22;38261;54.090;13.382;2023-07-08T06:02:01;29.30;99.90
52321;DHT22;38261;54.090;13.382;2023-07-08T06:03:23;29.30;99.90
52321;DHT22;38261;54.090;13.382;2023-07-08T06:04:45;29.10;99.90
52321;DHT22;38261;54.090;13.382;2023-07-08T06:06:07;29.00;99.90
52321;DHT22;38261;54.090;13.382;2023-07-08T06:07:30;28.90;99.90
52321;DHT22;38261;54.090;13.382;2023-07-08T06:08:52;29.00;99.90
52321;DHT22;38261;54.090;13.382;2023-07-08T06:10:14;29.10;99.90
52321;DHT22;38261;54.090;13.382;2023-07-08T06:11:36;29.30;99.90
52321;DHT22;38261;54.090;13.382;2023-07-08T06:12:59;29.50;99.90
52321;DHT22;38261;54.090;13.382;2023-07-08T06:14:21;29.70;99.90
52321;DHT22;38261;54.090;13.382;2023-07-08T06:15:43;29.50;99.90
52321;DHT22;38261;54.090;13.382;2023-07-08T06:17:06;29.30;99.90
52321;DHT22;38261;54.090;13.382;2023-07-08T06:18:28;29.20;99.90
52321;DHT22;38261;54.090;13.382;2023-07-08T06:19:50;29.10;99.90
52321;DHT22;38261;54.090;13.382;2023-07-08T06:21:12;29.00;99.90
52321;DHT22;38261;54.090;13.382;2023-07-08T06:22:34;28.90;99.90
52321;DHT22;38261;54.090;13.382;2023-07-08T06:23:59;29.00;99.90
52321;DHT22;38261;54.090;13.382;2023-07-08T06:25:22;29.20;99.90
52321;DHT22;38261;54.090;13.382;2023-07-08T06:26:44;28.90;99.90
52321;DHT22;38261;54.090;13.382;2023-07-08T06:28:06;28.70;99.90
52321;DHT22;38261;54.090;13.382;2023-07-08T06:29:28;28.70;99.90
52321;DHT22;38261;54.090;13.382;2023-07-08T06:30:50;28.60;99.90
52321;DHT22;38261;54.090;13.382;2023-07-08T06:32:12;28.50;99.90
52321;DHT22;38261;54.090;13.382;2023-07-08T06:33:34;28.20;99.90
52321;DHT22;38261;54.090;13.382;2023-07-08T06:34:57;27.90;99.90
52321;DHT22;38261;54.090;13.382;2023-07-08T06:36:19;27.40;99.90
52321;DHT22;38261;54.090;13.382;2023-07-08T06:37:41;26.70;99.90
52321;DHT22;38261;54.090;13.382;2023-07-08T06:39:03;25.80;99.90
52321;DHT22;38261;54.090;13.382;2023-07-08T06:40:28;25.10;99.90
52321;DHT22;38261;54.090;13.382;2023-07-08T06:41:51;24.50;99.90
52321;DHT22;38261;54.090;13.382;2023-07-08T06:43:13;24.10;99.90
52321;DHT22;38261;54.090;13.382;2023-07-08T06:44:35;23.70;99.90
52321;DHT22;38261;54.090;13.382;2023-07-08T06:45:57;23.40;99.90
52321;DHT22;38261;54.090;13.382;2023-07-08T06:47:20;23.20;99.90
52321;DHT22;38261;54.090;13.382;2023-07-08T06:48:43;22.90;99.90
52321;DHT22;38261;54.090;13.382;2023-07-08T06:50:06;22.70;99.90
52321;DHT22;38261;54.090;13.382;2023-07-08T06:51:28;22.50;99.90
52321;DHT22;38261;54.090;13.382;2023-07-08T06:52:51;22.30;99.90
52321;DHT22;38261;54.090;13.382;2023-07-08T06:54:13;22.20;99.90
52321;DHT22;38261;54.090;13.382;2023-07-08T06:55:35;22.00;99.90
52321;DHT22;38261;54.090;13.382;2023-07-08T06:56:57;21.90;99.90
52321;DHT22;38261;54.090;13.382;2023-07-08T06:58:19;21.90;99.90
52321;DHT22;38261;54.090;13.382;2023-07-08T06:59:41;21.90;99.90
52321;DHT22;38261;54.090;13.382;2023-07-08T07:01:03;21.90;99.90
52321;DHT22;38261;54.090;13.382;2023-07-08T07:02:27;21.90;99.90
52321;DHT22;38261;54.090;13.382;2023-07-08T07:03:49;21.90;99.90
52321;DHT22;38261;54.090;13.382;2023-07-08T07:05:12;21.80;99.90
52321;DHT22;38261;54.090;13.382;2023-07-08T07:06:34;21.80;99.90
52321;DHT22;38261;54.090;13.382;2023-07-08T07:07:56;21.80;99.90
52321;DHT22;38261;54.090;13.382;2023-07-08T07:09:18;21.80;99.90
52321;DHT22;38261;54.090;13.382;2023-07-08T07:10:40;21.80;99.90
52321;DHT22;38261;54.090;13.382;2023-07-08T07:12:04;21.80;99.90
52321;DHT22;38261;54.090;13.382;2023-07-08T07:13:26;21.80;99.90
52321;DHT22;38261;54.090;13.382;2023-07-08T07:14:48;21.80;99.90
52321;DHT22;38261;54.090;13.382;2023-07-08T07:16:12;21.80;99.90
52321;DHT22;38261;54.090;13.382;2023-07-08T07:17:34;21.80;99.90
52321;DHT22;38261;54.090;13.382;2023-07-08T07:18:57;21.80;99.90
52321;DHT22;38261;54.090;13.382;2023-07-08T07:20:19;21.80;99.90
52321;DHT22;38261;54.090;13.382;2023-07-08T07:21:42;21.80;99.90
52321;DHT22;38261;54.090;13.382;2023-07-08T07:23:04;21.90;99.90
52321;DHT22;38261;54.090;13.382;2023-07-08T07:24:26;21.90;99.90
52321;DHT22;38261;54.090;13.382;2023-07-08T07:25:48;22.00;99.90
52321;DHT22;38261;54.090;13.382;2023-07-08T07:27:10;22.00;99.90
52321;DHT22;38261;54.090;13.382;2023-07-08T07:28:32;22.00;99.90
52321;DHT22;38261;54.090;13.382;2023-07-08T07:29:55;22.10;99.90
52321;DHT22;38261;54.090;13.382;2023-07-08T07:31:17;22.20;99.90
52321;DHT22;38261;54.090;13.382;2023-07-08T07:32:39;22.20;99.90
52321;DHT22;38261;54.090;13.382;2023-07-08T07:34:01;22.10;99.90
52321;DHT22;38261;54.090;13.382;2023-07-08T07:35:24;22.20;99.90
52321;DHT22;38261;54.090;13.382;2023-07-08T07:36:46;22.20;99.90
52321;DHT22;38261;54.090;13.382;2023-07-08T07:38:08;22.20;99.90
52321;DHT22;38261;54.090;13.382;2023-07-08T07:39:30;22.20;99.90
52321;DHT22;38261;54.090;13.382;2023-07-08T07:40:52;22.00;99.90
52321;DHT22;38261;54.090;13.382;2023-07-08T07:42:16;22.00;99.90
52321;DHT22;38261;54.090;13.382;2023-07-08T07:43:39;21.90;99.90
52321;DHT22;38261;54.090;13.382;2023-07-08T07:45:01;21.90;99.90
52321;DHT22;38261;54.090;13.382;2023-07-08T07:46:23;22.00;99.90
52321;DHT22;38261;54.090;13.382;2023-07-08T07:47:45;22.00;99.90
52321;DHT22;38261;54.090;13.382;2023-07-08T07:49:07;22.10;99.90
52321;DHT22;38261;54.090;13.382;2023-07-08T07:50:30;22.10;99.90
52321;DHT22;38261;54.090;13.382;2023-07-08T07:51:52;22.10;99.90
52321;DHT22;38261;54.090;13.382;2023-07-08T07:53:14;22.00;99.90
52321;DHT22;38261;54.090;13.382;2023-07-08T07:54:38;22.00;99.90
52321;DHT22;38261;54.090;13.382;2023-07-08T07:56:02;21.90;99.90
52321;DHT22;38261;54.090;13.382;2023-07-08T07:57:26;22.00;99.90
52321;DHT22;38261;54.090;13.382;2023-07-08T07:58:48;22.00;99.90
52321;DHT22;38261;54.090;13.382;2023-07-08T08:00:11;22.20;99.90
52321;DHT22;38261;54.090;13.382;2023-07-08T08:01:33;22.30;99.90
52321;DHT22;38261;54.090;13.382;2023-07-08T08:02:55;22.40;99.90
52321;DHT22;38261;54.090;13.382;2023-07-08T08:04:17;22.50;99.90
52321;DHT22;38261;54.090;13.382;2023-07-08T08:05:39;22.50;99.90
52321;DHT22;38261;54.090;13.382;2023-07-08T08:07:02;22.50;99.90
52321;DHT22;38261;54.090;13.382;2023-07-08T08:08:24;22.40;99.90
52321;DHT22;38261;54.090;13.382;2023-07-08T08:09:47;22.30;99.90
52321;DHT22;38261;54.090;13.382;2023-07-08T08:11:09;22.30;99.90
52321;DHT22;38261;54.090;13.382;2023-07-08T08:12:31;22.30;99.90
52321;DHT22;38261;54.090;13.382;2023-07-08T08:14:13;22.30;99.90
52321;DHT22;38261;54.090;13.382;2023-07-08T08:15:36;22.30;99.90
52321;DHT22;38261;54.090;13.382;2023-07-08T08:16:59;22.20;99.90
52321;DHT22;38261;54.090;13.382;2023-07-08T08:18:21;22.20;99.90
52321;DHT22;38261;54.090;13.382;2023-07-08T08:19:43;22.20;99.90
52321;DHT22;38261;54.090;13.382;2023-07-08T08:21:05;22.20;99.90
52321;DHT22;38261;54.090;13.382;2023-07-08T08:22:28;22.30;99.90
52321;DHT22;38261;54.090;13.382;2023-07-08T08:23:50;22.40;99.90
52321;DHT22;38261;54.090;13.382;2023-07-08T08:25:13;22.50;99.90
52321;DHT22;38261;54.090;13.382;2023-07-08T08:26:35;22.60;99.90
52321;DHT22;38261;54.090;13.382;2023-07-08T08:27:58;22.60;99.90
52321;DHT22;38261;54.090;13.382;2023-07-08T08:29:20;22.60;99.90
52321;DHT22;38261;54.090;13.382;2023-07-08T08:30:46;22.60;99.90
52321;DHT22;38261;54.090;13.382;2023-07-08T08:32:08;22.70;99.90
52321;DHT22;38261;54.090;13.382;2023-07-08T08:33:30;22.70;99.90
52321;DHT22;38261;54.090;13.382;2023-07-08T08:34:53;22.80;99.90
52321;DHT22;38261;54.090;13.382;2023-07-08T08:36:15;22.70;99.90
52321;DHT22;38261;54.090;13.382;2023-07-08T08:37:37;22.70;99.90
52321;DHT22;38261;54.090;13.382;2023-07-08T08:38:59;22.70;99.90
52321;DHT22;38261;54.090;13.382;2023-07-08T08:40:22;22.70;99.90
52321;DHT22;38261;54.090;13.382;2023-07-08T08:41:44;22.80;99.90
52321;DHT22;38261;54.090;13.382;2023-07-08T08:43:11;22.80;99.90